This is the latest recevied weather packets stored in our database for station/object KC9GSD. If no packets are shown the sender has not sent any weather packets the latest 10 day(s).
| Time | Temp. | Humidity | Pressure | Rain* | Wind** | Luminosity | Snow |
|---|---|---|---|---|---|---|---|
| 1777487481 | 25.56° C | 75% | 1012.8 hPa | 0 mm | - | 291 W/m² | - |
| 1777487178 | 25° C | 77% | 1012.7 hPa | 0 mm | - | 948 W/m² | - |
| 1777486873 | 25.56° C | 77% | 1012.7 hPa | 0 mm | - | 902 W/m² | - |
| 1777486571 | 25.56° C | 76% | 1012.8 hPa | 0 mm | - | 432 W/m² | - |
| 1777486268 | 25.56° C | 79% | 1012.7 hPa | 0 mm | - | 955 W/m² | - |
| 1777485965 | 25° C | 78% | 1013 hPa | 0 mm | - | 354 W/m² | - |
| 1777485661 | 24.44° C | 78% | 1013.2 hPa | 0 mm | - | 634 W/m² | - |
| 1777485356 | 23.33° C | 83% | 1013.1 hPa | 0 mm | - | 358 W/m² | - |
| 1777485053 | 23.89° C | 81% | 1013.1 hPa | 0 mm | - | 180 W/m² | - |
| 1777484751 | 23.89° C | 81% | 1013 hPa | 0 mm | - | 328 W/m² | - |
| 1777484447 | 23.89° C | 83% | 1012.9 hPa | 0 mm | - | 402 W/m² | - |
| 1777484144 | 22.78° C | 86% | 1013.1 hPa | 0 mm | - | 975 W/m² | - |
| 1777483839 | 22.78° C | 85% | 1013.2 hPa | 0 mm | - | 227 W/m² | - |
| 1777483537 | 23.33° C | 82% | 1013.2 hPa | 0 mm | - | 85 W/m² | - |
| 1777483231 | 23.33° C | 82% | 1013.3 hPa | 0 mm | - | 319 W/m² | - |
| 1777482928 | 23.33° C | 84% | 1013.2 hPa | 0 mm | - | 350 W/m² | - |
| 1777482624 | 23.33° C | 82% | 1013.4 hPa | 0 mm | - | 174 W/m² | - |
| 1777482321 | 23.33° C | 83% | 1013.4 hPa | 0 mm | - | 340 W/m² | - |
| 1777482019 | 22.78° C | 82% | 1013.4 hPa | 0 mm | - | 294 W/m² | - |
| 1777481716 | 22.78° C | 83% | 1013.4 hPa | 0 mm | - | 380 W/m² | - |
| 1777481413 | 22.22° C | 83% | 1013.7 hPa | 0 mm | - | 119 W/m² | - |
| 1777481109 | 22.78° C | 83% | 1013.8 hPa | 0 mm | - | 199 W/m² | - |
| 1777480806 | 22.78° C | 83% | 1013.7 hPa | 0 mm | - | 294 W/m² | - |
| 1777480503 | 22.78° C | 83% | 1013.4 hPa | 0 mm | - | 186 W/m² | - |
| 1777480199 | 22.22° C | 84% | 1013.5 hPa | 0 mm | - | 149 W/m² | - |
* Rain latest hour (hover to see other rain measurements)
** Current wind speed in m/s (hover to see current wind gust speed)